Time;durP1;ratioP1;P1;durP2;ratioP2;P2;SDS_P1;SDS_P2;PMS_P1;PMS_P2;Temp;Humidity;BMP_temperature;BMP_pressure;BME280_temperature;BME280_humidity;BME280_pressure;Samples;Min_cycle;Max_cycle;Signal;HPM_P1;HPM_P2
2023/06/27 00:01:17;;;;;;;;;;;18.80;66.30;;;;;;5087275;28;19921;-71
2023/06/27 00:03:43;;;;;;;;;;;18.80;66.30;;;;;;5087903;28;20288;-71
2023/06/27 00:06:09;;;;;;;;;;;18.80;66.30;;;;;;5088124;28;19908;-71
2023/06/27 00:08:34;;;;;;;;;;;18.70;66.20;;;;;;5088224;28;19938;-71
2023/06/27 00:11:00;;;;;;;;;;;18.70;66.20;;;;;;5088133;28;19919;-71
2023/06/27 00:13:26;;;;;;;;;;;18.70;66.30;;;;;;5088063;28;20288;-71
2023/06/27 00:15:54;;;;;;;;;;;18.70;66.30;;;;;;5087970;28;19999;-71
2023/06/27 00:18:23;;;;;;;;;;;18.60;66.30;;;;;;5086904;28;20022;-71
2023/06/27 00:20:49;;;;;;;;;;;18.60;66.30;;;;;;5088021;28;19956;-71
2023/06/27 00:23:16;;;;;;;;;;;18.50;66.30;;;;;;5087925;28;20024;-71
2023/06/27 00:25:41;;;;;;;;;;;18.50;66.30;;;;;;5088060;28;19912;-71
2023/06/27 00:28:07;;;;;;;;;;;18.50;66.40;;;;;;5087871;28;19912;-71
2023/06/27 00:30:33;;;;;;;;;;;18.50;66.50;;;;;;5087957;28;20416;-71
2023/06/27 00:32:58;;;;;;;;;;;18.50;66.50;;;;;;5093887;28;20268;-71
2023/06/27 00:35:24;;;;;;;;;;;18.50;66.40;;;;;;5093358;28;19912;-71
2023/06/27 00:37:49;;;;;;;;;;;18.40;66.40;;;;;;5094616;28;19908;-71
2023/06/27 00:40:16;;;;;;;;;;;18.40;66.40;;;;;;5094553;28;19947;-71
2023/06/27 00:42:41;;;;;;;;;;;18.40;66.50;;;;;;5094450;28;19913;-71
2023/06/27 00:45:07;;;;;;;;;;;18.40;66.50;;;;;;5094466;28;19928;-71
2023/06/27 00:47:33;;;;;;;;;;;18.40;66.50;;;;;;5094447;28;20439;-71
2023/06/27 00:49:59;;;;;;;;;;;18.40;66.40;;;;;;5094447;28;19927;-71
2023/06/27 00:52:24;;;;;;;;;;;18.40;66.40;;;;;;5094579;28;19912;-71
2023/06/27 00:54:51;;;;;;;;;;;18.40;67.00;;;;;;5094382;28;19933;-71
2023/06/27 00:57:17;;;;;;;;;;;18.40;66.50;;;;;;5094332;28;19955;-71
2023/06/27 00:59:43;;;;;;;;;;;18.40;66.60;;;;;;5094470;28;19952;-71
2023/06/27 01:02:08;;;;;;;;;;;18.40;66.60;;;;;;5094376;28;20253;-71
2023/06/27 01:04:34;;;;;;;;;;;18.30;66.50;;;;;;5094060;28;19934;-71
2023/06/27 01:07:16;;;;;;;;;;;18.30;66.50;;;;;;5094342;28;20304;-71
2023/06/27 01:09:51;;;;;;;;;;;18.30;66.50;;;;;;5094335;28;20399;-71
2023/06/27 01:12:17;;;;;;;;;;;18.30;66.50;;;;;;5094336;28;19908;-71
2023/06/27 01:14:43;;;;;;;;;;;18.30;66.50;;;;;;5094267;28;19912;-70
2023/06/27 01:17:10;;;;;;;;;;;18.40;66.60;;;;;;5094158;28;19915;-71
2023/06/27 01:19:36;;;;;;;;;;;18.40;66.60;;;;;;5094262;28;20272;-71
2023/06/27 01:22:05;;;;;;;;;;;18.30;66.50;;;;;;5094182;28;20424;-71
2023/06/27 01:24:31;;;;;;;;;;;18.30;66.50;;;;;;5094120;28;19993;-71
2023/06/27 01:26:57;;;;;;;;;;;18.30;66.50;;;;;;5094168;28;20283;-71
2023/06/27 01:29:22;;;;;;;;;;;18.30;66.50;;;;;;5094087;28;19932;-71
2023/06/27 01:31:59;;;;;;;;;;;18.30;66.50;;;;;;5094148;28;19916;-71
2023/06/27 01:34:27;;;;;;;;;;;18.30;66.50;;;;;;5094173;28;19931;-71
2023/06/27 01:37:02;;;;;;;;;;;18.40;66.60;;;;;;5094361;28;20271;-71
2023/06/27 01:39:38;;;;;;;;;;;18.30;66.50;;;;;;5092648;28;19915;-71
2023/06/27 01:42:08;;;;;;;;;;;18.30;66.50;;;;;;5094024;28;19908;-71
2023/06/27 01:44:34;;;;;;;;;;;18.30;66.50;;;;;;5090956;28;20450;-71
2023/06/27 01:47:00;;;;;;;;;;;18.30;66.50;;;;;;5090820;28;19970;-69
2023/06/27 01:49:25;;;;;;;;;;;18.30;66.60;;;;;;5090678;28;19919;-70
2023/06/27 01:51:54;;;;;;;;;;;18.30;66.60;;;;;;5090601;28;19919;-69
2023/06/27 01:54:19;;;;;;;;;;;18.30;66.50;;;;;;5090600;28;20021;-70
2023/06/27 01:56:45;;;;;;;;;;;18.30;66.50;;;;;;5090651;28;20387;-70
2023/06/27 01:59:11;;;;;;;;;;;18.20;66.60;;;;;;5090506;28;20315;-70
2023/06/27 02:01:36;;;;;;;;;;;18.20;66.60;;;;;;5089487;28;20280;-70
2023/06/27 02:04:03;;;;;;;;;;;18.20;66.60;;;;;;5090172;28;20032;-71
2023/06/27 02:06:29;;;;;;;;;;;18.20;66.60;;;;;;5090326;28;19912;-70
2023/06/27 02:08:54;;;;;;;;;;;18.20;66.60;;;;;;5090311;28;19922;-70
2023/06/27 02:11:20;;;;;;;;;;;18.10;66.50;;;;;;5090377;28;19916;-70
2023/06/27 02:13:45;;;;;;;;;;;18.10;66.60;;;;;;5088940;28;19912;-69
2023/06/27 02:16:11;;;;;;;;;;;18.10;66.60;;;;;;5090144;28;19919;-70
2023/06/27 02:18:36;;;;;;;;;;;18.10;66.60;;;;;;5090169;28;20319;-70
2023/06/27 02:21:02;;;;;;;;;;;18.10;66.60;;;;;;5090093;28;19952;-70
2023/06/27 02:23:28;;;;;;;;;;;18.10;66.60;;;;;;5090024;28;19920;-70
2023/06/27 02:25:53;;;;;;;;;;;18.20;66.70;;;;;;5089906;28;20451;-70
2023/06/27 02:28:19;;;;;;;;;;;18.20;66.70;;;;;;5089915;28;19919;-70
2023/06/27 02:30:44;;;;;;;;;;;18.20;66.70;;;;;;5089963;28;20384;-70
2023/06/27 02:33:10;;;;;;;;;;;18.20;66.60;;;;;;5089817;28;20018;-70
2023/06/27 02:35:36;;;;;;;;;;;18.20;66.70;;;;;;5089768;28;19912;-70
2023/06/27 02:38:01;;;;;;;;;;;18.20;66.70;;;;;;5089675;28;19912;-70
2023/06/27 02:40:28;;;;;;;;;;;18.10;66.60;;;;;;5089723;28;19916;-70
2023/06/27 02:42:54;;;;;;;;;;;18.10;66.70;;;;;;5089684;28;20276;-70
2023/06/27 02:45:19;;;;;;;;;;;18.10;66.70;;;;;;5089483;28;19923;-70
2023/06/27 02:47:45;;;;;;;;;;;18.10;66.70;;;;;;5089522;28;19908;-70
2023/06/27 02:50:10;;;;;;;;;;;18.10;66.80;;;;;;5088221;28;20370;-70
2023/06/27 02:52:36;;;;;;;;;;;18.10;66.70;;;;;;5089577;28;19935;-70
2023/06/27 02:55:01;;;;;;;;;;;18.10;66.70;;;;;;5088881;28;19912;-69
2023/06/27 02:57:29;;;;;;;;;;;18.10;66.70;;;;;;5089389;28;19912;-70
2023/06/27 02:59:55;;;;;;;;;;;18.10;66.60;;;;;;5089543;28;20011;-70
2023/06/27 03:02:20;;;;;;;;;;;18.00;66.60;;;;;;5089274;28;20062;-70
2023/06/27 03:04:47;;;;;;;;;;;18.00;66.70;;;;;;5089170;28;19981;-70
2023/06/27 03:07:13;;;;;;;;;;;18.00;66.70;;;;;;5088013;28;19949;-70
2023/06/27 03:09:39;;;;;;;;;;;18.00;66.70;;;;;;5089233;28;20316;-70
2023/06/27 03:12:04;;;;;;;;;;;17.90;66.70;;;;;;5089167;28;19912;-70
2023/06/27 03:14:30;;;;;;;;;;;17.90;66.80;;;;;;5089155;28;19923;-70
2023/06/27 03:16:56;;;;;;;;;;;17.90;66.80;;;;;;5089001;28;19912;-70
2023/06/27 03:19:21;;;;;;;;;;;17.80;66.80;;;;;;5089302;28;19912;-70
2023/06/27 03:21:47;;;;;;;;;;;17.80;66.80;;;;;;5088988;28;19934;-70
2023/06/27 03:24:12;;;;;;;;;;;17.80;66.70;;;;;;5087605;28;20380;-70
2023/06/27 03:26:38;;;;;;;;;;;17.90;66.80;;;;;;5088749;28;19926;-70
2023/06/27 03:29:03;;;;;;;;;;;17.80;66.80;;;;;;5087460;28;19915;-70
2023/06/27 03:31:29;;;;;;;;;;;17.80;66.80;;;;;;5088740;28;20368;-70
2023/06/27 03:33:56;;;;;;;;;;;17.80;66.80;;;;;;5088761;28;19916;-70
2023/06/27 03:36:24;;;;;;;;;;;17.80;66.70;;;;;;5087429;28;20044;-70
2023/06/27 03:38:50;;;;;;;;;;;17.90;66.80;;;;;;5088610;28;19947;-70
2023/06/27 03:41:16;;;;;;;;;;;17.80;66.80;;;;;;5088525;28;19915;-70
2023/06/27 03:43:42;;;;;;;;;;;17.80;66.80;;;;;;5088517;28;20044;-70
2023/06/27 03:46:09;;;;;;;;;;;17.70;66.70;;;;;;5088374;28;19912;-71
2023/06/27 03:48:35;;;;;;;;;;;17.70;66.70;;;;;;5088484;28;20368;-70
2023/06/27 03:51:01;;;;;;;;;;;17.60;66.60;;;;;;5088543;28;19919;-70
2023/06/27 03:53:26;;;;;;;;;;;17.50;66.60;;;;;;5088471;28;19919;-70
2023/06/27 03:55:52;;;;;;;;;;;17.40;66.60;;;;;;5088287;28;20011;-70
2023/06/27 03:58:18;;;;;;;;;;;17.30;66.60;;;;;;5087122;28;19923;-70
2023/06/27 04:00:43;;;;;;;;;;;17.30;66.80;;;;;;5086789;28;20283;-70
2023/06/27 04:03:09;;;;;;;;;;;17.20;66.80;;;;;;5087725;28;19920;-70
2023/06/27 04:05:34;;;;;;;;;;;17.20;66.80;;;;;;5087516;28;19916;-69
2023/06/27 04:08:00;;;;;;;;;;;17.30;66.90;;;;;;5085877;28;19955;-70
2023/06/27 04:10:26;;;;;;;;;;;17.30;66.90;;;;;;5087859;28;19916;-70
2023/06/27 04:12:51;;;;;;;;;;;17.30;66.90;;;;;;5086482;28;19947;-70
2023/06/27 04:15:17;;;;;;;;;;;17.30;66.90;;;;;;5087844;28;20276;-70
2023/06/27 04:17:43;;;;;;;;;;;17.30;66.90;;;;;;5087636;28;19961;-70
2023/06/27 04:20:09;;;;;;;;;;;17.30;66.90;;;;;;5087684;28;20356;-70
2023/06/27 04:22:34;;;;;;;;;;;17.30;66.90;;;;;;5087619;28;19912;-70
2023/06/27 04:25:00;;;;;;;;;;;17.30;66.90;;;;;;5087489;28;19960;-70
2023/06/27 04:27:26;;;;;;;;;;;17.30;66.90;;;;;;5087503;28;19916;-70
2023/06/27 04:29:51;;;;;;;;;;;17.30;66.90;;;;;;5087643;28;20015;-70
2023/06/27 04:32:17;;;;;;;;;;;17.30;66.90;;;;;;5087552;28;19975;-70
2023/06/27 04:34:42;;;;;;;;;;;17.30;66.90;;;;;;5069347;28;19920;-70
2023/06/27 04:37:08;;;;;;;;;;;17.30;67.00;;;;;;5087195;28;19956;-70
2023/06/27 04:39:33;;;;;;;;;;;17.30;67.10;;;;;;5085948;28;19913;-70
2023/06/27 04:41:59;;;;;;;;;;;17.30;67.10;;;;;;5087307;28;20004;-70
2023/06/27 04:44:24;;;;;;;;;;;17.30;67.10;;;;;;5087333;28;20276;-70
2023/06/27 04:46:50;;;;;;;;;;;17.30;67.00;;;;;;5087299;28;19964;-70
2023/06/27 04:49:16;;;;;;;;;;;17.30;67.00;;;;;;5087267;28;20306;-70
2023/06/27 04:51:41;;;;;;;;;;;17.30;67.00;;;;;;5087359;28;19916;-70
2023/06/27 04:54:07;;;;;;;;;;;17.30;67.00;;;;;;5086140;28;19959;-70
2023/06/27 04:56:33;;;;;;;;;;;17.30;67.10;;;;;;5087297;28;20010;-70
2023/06/27 04:58:59;;;;;;;;;;;17.30;67.10;;;;;;5087136;28;20329;-70
2023/06/27 05:01:25;;;;;;;;;;;17.40;67.20;;;;;;5087486;28;19908;-70
2023/06/27 05:03:51;;;;;;;;;;;17.40;67.20;;;;;;5087021;28;19924;-70
2023/06/27 05:06:17;;;;;;;;;;;17.40;67.20;;;;;;5087475;28;19908;-70
2023/06/27 05:08:43;;;;;;;;;;;17.40;67.10;;;;;;5087785;28;19912;-70
2023/06/27 05:11:08;;;;;;;;;;;17.40;67.10;;;;;;5087460;28;19947;-70
2023/06/27 05:13:34;;;;;;;;;;;17.40;67.10;;;;;;5087361;28;20418;-70
2023/06/27 05:15:59;;;;;;;;;;;17.40;67.20;;;;;;5087342;28;20426;-70
2023/06/27 05:18:26;;;;;;;;;;;17.50;67.10;;;;;;5088047;28;19924;-70
2023/06/27 05:20:51;;;;;;;;;;;17.50;67.20;;;;;;5091008;28;19908;-75
2023/06/27 05:23:17;;;;;;;;;;;17.50;67.20;;;;;;5089570;28;20318;-75
2023/06/27 05:25:43;;;;;;;;;;;17.50;67.20;;;;;;5090967;28;19938;-75
2023/06/27 05:28:08;;;;;;;;;;;17.50;67.20;;;;;;5091051;28;20366;-74
2023/06/27 05:30:34;;;;;;;;;;;17.50;67.20;;;;;;5091107;28;19947;-74
2023/06/27 05:33:01;;;;;;;;;;;17.50;67.20;;;;;;5090744;28;19951;-75
2023/06/27 05:35:27;;;;;;;;;;;17.60;67.30;;;;;;5091132;28;19962;-74
2023/06/27 05:37:52;;;;;;;;;;;17.60;67.30;;;;;;5089719;28;19912;-75
2023/06/27 05:40:18;;;;;;;;;;;17.70;67.40;;;;;;5090815;28;19991;-75
2023/06/27 05:42:44;;;;;;;;;;;17.70;67.30;;;;;;5090713;28;20035;-75
2023/06/27 05:45:09;;;;;;;;;;;17.80;67.30;;;;;;5089334;28;20277;-74
2023/06/27 05:47:35;;;;;;;;;;;17.80;67.20;;;;;;5090493;28;19916;-75
2023/06/27 05:50:01;;;;;;;;;;;17.80;67.20;;;;;;5090645;28;19912;-74
2023/06/27 05:52:28;;;;;;;;;;;17.80;67.20;;;;;;5090558;28;19916;-74
2023/06/27 05:54:54;;;;;;;;;;;17.80;67.30;;;;;;5090572;28;19908;-75
2023/06/27 05:57:20;;;;;;;;;;;17.80;67.30;;;;;;5090455;28;19913;-75
2023/06/27 05:59:45;;;;;;;;;;;17.90;67.40;;;;;;5090390;28;20012;-73
2023/06/27 06:02:11;;;;;;;;;;;18.00;67.50;;;;;;5072977;28;20050;-75
2023/06/27 06:04:36;;;;;;;;;;;18.00;67.40;;;;;;5090592;28;19920;-75
2023/06/27 06:07:03;;;;;;;;;;;18.10;67.40;;;;;;5091461;28;19916;-75
2023/06/27 06:09:30;;;;;;;;;;;18.10;67.40;;;;;;5090354;28;19964;-74
2023/06/27 06:11:56;;;;;;;;;;;18.10;67.40;;;;;;5090222;28;20092;-74
2023/06/27 06:14:21;;;;;;;;;;;18.20;67.50;;;;;;5090102;28;20082;-74
2023/06/27 06:16:48;;;;;;;;;;;18.30;67.40;;;;;;5090091;28;19916;-74
2023/06/27 06:19:13;;;;;;;;;;;18.40;67.50;;;;;;5090134;28;19961;-75
2023/06/27 06:21:39;;;;;;;;;;;18.40;67.50;;;;;;5090140;28;19912;-74
2023/06/27 06:24:04;;;;;;;;;;;18.50;67.50;;;;;;5088583;28;20039;-74
2023/06/27 06:26:30;;;;;;;;;;;18.60;67.50;;;;;;5089664;28;19917;-75
2023/06/27 06:28:56;;;;;;;;;;;18.60;67.40;;;;;;5087602;28;19919;-74
2023/06/27 06:31:23;;;;;;;;;;;18.60;67.40;;;;;;5089215;28;20009;-73
2023/06/27 06:33:49;;;;;;;;;;;18.60;67.40;;;;;;5089634;28;19913;-74
2023/06/27 06:36:14;;;;;;;;;;;18.50;67.40;;;;;;5089338;28;19917;-75
2023/06/27 06:38:40;;;;;;;;;;;18.50;67.50;;;;;;5089592;28;19916;-74
2023/06/27 06:41:06;;;;;;;;;;;18.50;67.50;;;;;;5089610;28;19908;-74
2023/06/27 06:43:32;;;;;;;;;;;18.50;67.50;;;;;;5089488;28;20187;-74
2023/06/27 06:45:58;;;;;;;;;;;18.60;67.60;;;;;;5089426;28;19912;-74
2023/06/27 06:48:23;;;;;;;;;;;18.50;67.60;;;;;;5089258;28;20007;-74
2023/06/27 06:50:49;;;;;;;;;;;18.50;67.50;;;;;;5088083;28;20010;-74
2023/06/27 06:53:15;;;;;;;;;;;18.50;67.50;;;;;;5089257;28;19916;-74
2023/06/27 06:55:41;;;;;;;;;;;18.50;67.70;;;;;;5087996;28;19912;-74
2023/06/27 06:58:06;;;;;;;;;;;18.50;67.70;;;;;;5088872;28;20252;-74
2023/06/27 07:00:32;;;;;;;;;;;18.50;67.80;;;;;;5088515;28;19913;-72
2023/06/27 07:02:57;;;;;;;;;;;18.50;67.80;;;;;;5088658;28;19924;-75
2023/06/27 07:05:23;;;;;;;;;;;18.50;67.80;;;;;;5088989;28;19943;-75
2023/06/27 07:07:49;;;;;;;;;;;18.60;67.80;;;;;;5088719;28;20159;-68
2023/06/27 07:10:15;;;;;;;;;;;18.70;67.80;;;;;;5088531;28;20016;-75
2023/06/27 07:12:40;;;;;;;;;;;18.70;67.80;;;;;;5088695;28;20278;-75
2023/06/27 07:15:06;;;;;;;;;;;18.80;67.80;;;;;;5088591;28;20387;-75
2023/06/27 07:17:32;;;;;;;;;;;18.80;67.70;;;;;;5088735;28;19912;-75
2023/06/27 07:19:58;;;;;;;;;;;18.80;67.70;;;;;;5088814;28;20500;-75
2023/06/27 07:22:24;;;;;;;;;;;18.80;67.70;;;;;;5088568;28;19912;-75
2023/06/27 07:24:49;;;;;;;;;;;18.80;67.70;;;;;;5088531;28;19993;-75
2023/06/27 07:27:15;;;;;;;;;;;18.90;67.70;;;;;;5088357;28;19915;-75
2023/06/27 07:29:40;;;;;;;;;;;18.90;67.80;;;;;;5088742;28;19912;-75
2023/06/27 07:32:06;;;;;;;;;;;18.90;67.80;;;;;;5088515;28;19915;-75
2023/06/27 07:34:33;;;;;;;;;;;19.00;67.80;;;;;;5088229;28;19919;-75
2023/06/27 07:36:59;;;;;;;;;;;19.00;67.80;;;;;;5087960;28;19981;-75
2023/06/27 07:39:24;;;;;;;;;;;19.10;67.90;;;;;;5088408;28;19908;-75
2023/06/27 07:41:50;;;;;;;;;;;19.10;67.90;;;;;;5087913;28;19916;-75
2023/06/27 07:44:15;;;;;;;;;;;19.10;67.90;;;;;;5087657;28;19920;-75
2023/06/27 07:46:41;;;;;;;;;;;19.20;67.90;;;;;;5087567;28;20360;-75
2023/06/27 07:49:07;;;;;;;;;;;19.30;68.00;;;;;;5087918;28;19965;-75
2023/06/27 07:51:33;;;;;;;;;;;19.30;68.00;;;;;;5087889;28;19919;-75
2023/06/27 07:54:00;;;;;;;;;;;19.40;67.90;;;;;;5087749;28;19912;-75
2023/06/27 07:56:25;;;;;;;;;;;19.40;68.00;;;;;;5087440;28;19954;-75
2023/06/27 07:58:51;;;;;;;;;;;19.50;67.90;;;;;;5087710;28;19951;-75
2023/06/27 08:01:17;;;;;;;;;;;19.60;67.90;;;;;;5087687;28;19916;-75
2023/06/27 08:03:42;;;;;;;;;;;19.60;67.90;;;;;;5087291;28;19963;-75
2023/06/27 08:06:08;;;;;;;;;;;19.60;67.90;;;;;;5087417;28;20356;-75
2023/06/27 08:08:36;;;;;;;;;;;19.70;68.00;;;;;;5087426;28;19918;-75
2023/06/27 08:11:02;;;;;;;;;;;19.80;68.00;;;;;;5085892;28;19912;-68
2023/06/27 08:13:27;;;;;;;;;;;19.90;68.00;;;;;;5087723;28;19958;-73
2023/06/27 08:15:53;;;;;;;;;;;19.90;67.90;;;;;;5086234;28;19948;-74
2023/06/27 08:18:19;;;;;;;;;;;19.90;67.90;;;;;;5087280;28;19912;-74
2023/06/27 08:20:44;;;;;;;;;;;19.90;68.00;;;;;;5087380;28;19912;-70
2023/06/27 08:23:10;;;;;;;;;;;20.00;68.10;;;;;;5087430;28;20375;-75
2023/06/27 08:25:35;;;;;;;;;;;20.10;68.20;;;;;;5087306;28;20394;-72
2023/06/27 08:28:01;;;;;;;;;;;20.30;68.10;;;;;;5087428;28;20362;-72
2023/06/27 08:30:27;;;;;;;;;;;20.40;68.10;;;;;;5087629;28;19966;-72
2023/06/27 08:32:54;;;;;;;;;;;20.60;68.00;;;;;;5087499;28;19952;-72
2023/06/27 08:35:20;;;;;;;;;;;20.70;67.90;;;;;;5087750;28;20011;-71
2023/06/27 08:37:46;;;;;;;;;;;20.80;67.90;;;;;;5086894;28;20000;-72
2023/06/27 08:40:18;;;;;;;;;;;20.80;67.80;;;;;;5086028;28;20248;-72
2023/06/27 08:42:44;;;;;;;;;;;20.80;67.80;;;;;;5087390;28;19915;-73
2023/06/27 08:45:10;;;;;;;;;;;20.80;67.90;;;;;;5085277;28;20256;-73
2023/06/27 08:47:36;;;;;;;;;;;20.80;68.00;;;;;;5087298;28;20283;-72
2023/06/27 08:50:06;;;;;;;;;;;20.80;68.00;;;;;;5087184;28;19912;-72
2023/06/27 08:52:37;;;;;;;;;;;20.80;68.00;;;;;;5087553;28;19919;-72
2023/06/27 08:55:04;;;;;;;;;;;20.80;68.10;;;;;;5091229;28;19912;-72
2023/06/27 08:57:31;;;;;;;;;;;20.80;68.10;;;;;;5091422;28;20218;-72
2023/06/27 08:59:58;;;;;;;;;;;20.80;68.10;;;;;;5091147;28;19912;-72
2023/06/27 09:02:25;;;;;;;;;;;20.90;68.20;;;;;;5091149;28;19969;-72
2023/06/27 09:04:51;;;;;;;;;;;20.90;68.20;;;;;;5089606;28;19931;-72
2023/06/27 09:07:17;;;;;;;;;;;20.90;68.20;;;;;;5090897;28;20198;-72
2023/06/27 09:09:43;;;;;;;;;;;21.00;68.20;;;;;;5090689;28;19981;-72
2023/06/27 09:12:08;;;;;;;;;;;21.00;68.20;;;;;;5100642;28;20339;-72
2023/06/27 09:14:34;;;;;;;;;;;21.10;68.20;;;;;;5101384;28;19916;-72
2023/06/27 09:17:00;;;;;;;;;;;21.20;68.20;;;;;;5091929;28;20299;-72
2023/06/27 09:19:27;;;;;;;;;;;21.20;68.10;;;;;;5092035;28;19983;-72
2023/06/27 09:21:53;;;;;;;;;;;21.20;68.60;;;;;;5092347;28;19908;-72
2023/06/27 09:24:22;;;;;;;;;;;21.20;68.10;;;;;;5092197;28;19927;-73
2023/06/27 09:26:48;;;;;;;;;;;21.20;68.20;;;;;;5092098;28;19916;-72
2023/06/27 09:29:13;;;;;;;;;;;21.20;68.30;;;;;;5091978;28;20242;-72
2023/06/27 09:31:39;;;;;;;;;;;21.30;68.30;;;;;;5091997;28;20261;-73
2023/06/27 09:34:06;;;;;;;;;;;21.40;68.30;;;;;;5091915;28;19927;-74
2023/06/27 09:36:32;;;;;;;;;;;21.60;68.50;;;;;;5091384;28;19916;-73
2023/06/27 09:39:05;;;;;;;;;;;21.90;68.40;;;;;;5096726;28;20356;-72
2023/06/27 09:41:44;;;;;;;;;;;22.00;68.20;;;;;;5100955;28;19912;-73
2023/06/27 09:44:11;;;;;;;;;;;22.10;68.10;;;;;;5105994;28;19923;-72
2023/06/27 09:46:36;;;;;;;;;;;22.10;68.00;;;;;;5106970;28;19923;-73
2023/06/27 09:49:05;;;;;;;;;;;22.20;68.10;;;;;;5100375;28;19926;-73
2023/06/27 09:51:32;;;;;;;;;;;22.20;68.10;;;;;;5109104;27;19908;-73
2023/06/27 09:53:58;;;;;;;;;;;22.20;68.00;;;;;;5111384;28;20412;-73
2023/06/27 09:56:30;;;;;;;;;;;22.20;68.10;;;;;;5111743;28;19968;-72
2023/06/27 09:58:56;;;;;;;;;;;22.20;68.10;;;;;;5111266;28;19908;-72
2023/06/27 10:01:24;;;;;;;;;;;22.20;68.00;;;;;;5110840;28;20031;-73
2023/06/27 10:03:50;;;;;;;;;;;22.10;68.10;;;;;;5109794;28;19926;-75
2023/06/27 10:06:16;;;;;;;;;;;22.10;68.10;;;;;;5110672;28;19916;-73
2023/06/27 10:08:41;;;;;;;;;;;22.00;68.20;;;;;;5112085;28;19964;-72
2023/06/27 10:11:07;;;;;;;;;;;22.00;68.20;;;;;;5112233;28;20020;-72
2023/06/27 10:13:33;;;;;;;;;;;21.90;68.30;;;;;;5112411;27;19912;-74
2023/06/27 10:15:59;;;;;;;;;;;21.80;68.30;;;;;;5111534;28;19968;-73
2023/06/27 10:18:25;;;;;;;;;;;21.70;68.40;;;;;;5110055;28;19915;-73
2023/06/27 10:20:50;;;;;;;;;;;21.70;68.50;;;;;;5111714;28;19923;-73
2023/06/27 10:23:16;;;;;;;;;;;21.80;68.50;;;;;;5110496;28;20348;-73
2023/06/27 10:25:41;;;;;;;;;;;21.80;68.50;;;;;;5111875;28;19908;-73
2023/06/27 10:28:08;;;;;;;;;;;21.90;68.60;;;;;;5111393;28;19946;-73
2023/06/27 10:30:44;;;;;;;;;;;22.00;68.60;;;;;;5111244;28;19912;-73
2023/06/27 10:33:18;;;;;;;;;;;22.10;68.50;;;;;;5111383;28;19912;-72
2023/06/27 10:35:51;;;;;;;;;;;22.30;68.50;;;;;;5110984;28;19908;-73
2023/06/27 10:38:18;;;;;;;;;;;22.50;68.40;;;;;;5110789;28;19908;-72
2023/06/27 10:41:03;;;;;;;;;;;22.50;68.10;;;;;;5111051;28;19919;-73
2023/06/27 10:43:36;;;;;;;;;;;22.50;68.10;;;;;;5111210;28;19927;-74
2023/06/27 10:46:06;;;;;;;;;;;22.40;68.20;;;;;;5111233;28;19990;-73
2023/06/27 10:48:48;;;;;;;;;;;22.30;68.30;;;;;;5111141;28;20420;-73
2023/06/27 10:51:18;;;;;;;;;;;22.30;68.50;;;;;;5111116;28;19912;-73
2023/06/27 10:54:03;;;;;;;;;;;22.40;68.50;;;;;;5110991;28;19912;-73
2023/06/27 10:56:29;;;;;;;;;;;22.40;68.50;;;;;;5110110;28;19922;-73
2023/06/27 10:58:58;;;;;;;;;;;22.60;68.50;;;;;;5110581;28;19912;-74
2023/06/27 11:01:24;;;;;;;;;;;22.60;68.40;;;;;;5108616;28;19980;-73
2023/06/27 11:03:56;;;;;;;;;;;22.60;68.40;;;;;;5110035;28;19924;-74
2023/06/27 11:06:39;;;;;;;;;;;22.70;68.40;;;;;;5109378;28;20380;-73
2023/06/27 11:09:05;;;;;;;;;;;22.70;68.30;;;;;;5109834;28;19995;-74
2023/06/27 11:11:31;;;;;;;;;;;22.60;68.20;;;;;;5108869;28;19912;-72
2023/06/27 11:14:05;;;;;;;;;;;22.50;68.20;;;;;;5110386;28;20006;-74
2023/06/27 11:16:30;;;;;;;;;;;22.40;68.90;;;;;;5109927;28;20006;-73
2023/06/27 11:18:56;;;;;;;;;;;22.30;68.50;;;;;;5110270;28;19954;-74
2023/06/27 11:21:22;;;;;;;;;;;22.30;68.50;;;;;;5110642;28;20279;-73
2023/06/27 11:23:48;;;;;;;;;;;22.20;68.50;;;;;;5110236;28;19926;-72
2023/06/27 11:26:13;;;;;;;;;;;22.20;68.60;;;;;;5110260;28;19934;-74
2023/06/27 11:28:39;;;;;;;;;;;22.20;68.70;;;;;;5110269;28;19912;-73
2023/06/27 11:31:04;;;;;;;;;;;22.20;68.80;;;;;;5109748;28;19931;-71
2023/06/27 11:33:30;;;;;;;;;;;22.30;68.80;;;;;;5109650;28;19961;-71
2023/06/27 11:35:58;;;;;;;;;;;22.40;68.70;;;;;;5108654;28;19912;-72
2023/06/27 11:38:23;;;;;;;;;;;22.40;68.60;;;;;;5108799;28;19912;-71
2023/06/27 11:40:49;;;;;;;;;;;22.40;68.50;;;;;;5109376;28;20003;-71
2023/06/27 11:43:15;;;;;;;;;;;22.40;68.60;;;;;;5109755;27;19912;-71
2023/06/27 11:45:48;;;;;;;;;;;22.40;68.60;;;;;;5109174;28;19915;-70
2023/06/27 11:48:14;;;;;;;;;;;22.40;68.60;;;;;;5109368;28;19954;-71
2023/06/27 11:50:52;;;;;;;;;;;22.40;68.60;;;;;;5109555;28;20328;-71
2023/06/27 11:53:26;;;;;;;;;;;22.30;68.50;;;;;;5109464;28;19916;-71
2023/06/27 11:55:52;;;;;;;;;;;22.30;68.60;;;;;;5108860;28;19912;-71
2023/06/27 11:58:25;;;;;;;;;;;22.30;68.60;;;;;;5107283;28;19999;-71
2023/06/27 12:00:51;;;;;;;;;;;22.30;68.80;;;;;;5109359;28;20279;-71
2023/06/27 12:03:23;;;;;;;;;;;22.40;69.40;;;;;;5109020;28;19924;-72
2023/06/27 12:05:49;;;;;;;;;;;22.70;69.00;;;;;;5109079;28;19912;-72
2023/06/27 12:08:20;;;;;;;;;;;22.90;68.60;;;;;;5108803;28;19941;-72
2023/06/27 12:10:52;;;;;;;;;;;23.00;68.40;;;;;;5108286;28;20266;-72
2023/06/27 12:13:18;;;;;;;;;;;23.10;68.60;;;;;;5090563;28;19912;-72
2023/06/27 12:15:44;;;;;;;;;;;23.30;68.70;;;;;;5108936;28;19911;-72
2023/06/27 12:18:19;;;;;;;;;;;23.50;68.60;;;;;;5108120;28;19912;-72
2023/06/27 12:20:45;;;;;;;;;;;23.70;68.40;;;;;;5109830;27;20334;-76
2023/06/27 12:23:11;;;;;;;;;;;23.90;68.50;;;;;;5114922;28;19958;-73
2023/06/27 12:25:45;;;;;;;;;;;24.10;68.50;;;;;;5108918;28;19919;-72
2023/06/27 12:28:11;;;;;;;;;;;24.30;68.30;;;;;;5106651;28;19958;-73
2023/06/27 12:30:37;;;;;;;;;;;24.30;68.10;;;;;;5108381;28;20271;-72
2023/06/27 12:33:03;;;;;;;;;;;24.20;68.00;;;;;;5108455;28;20379;-72
2023/06/27 12:35:28;;;;;;;;;;;24.10;68.10;;;;;;5107104;28;19916;-73
2023/06/27 12:37:54;;;;;;;;;;;23.90;68.20;;;;;;5108284;28;20003;-73
2023/06/27 12:40:22;;;;;;;;;;;23.80;68.30;;;;;;5108451;28;19934;-72
2023/06/27 12:42:49;;;;;;;;;;;23.70;68.50;;;;;;5108885;28;20291;-72
2023/06/27 12:45:15;;;;;;;;;;;23.80;68.80;;;;;;5108578;28;19931;-72
2023/06/27 12:47:44;;;;;;;;;;;23.90;68.90;;;;;;5108319;28;20265;-72
2023/06/27 12:50:10;;;;;;;;;;;24.10;68.70;;;;;;5108515;28;19911;-72
2023/06/27 12:52:36;;;;;;;;;;;24.10;68.50;;;;;;5108265;28;19908;-76
2023/06/27 12:55:02;;;;;;;;;;;24.20;68.60;;;;;;5108360;28;20402;-73
2023/06/27 12:57:27;;;;;;;;;;;24.30;68.60;;;;;;5108440;28;20557;-72
2023/06/27 12:59:53;;;;;;;;;;;24.60;68.70;;;;;;5108190;28;20016;-72
2023/06/27 13:02:19;;;;;;;;;;;24.80;68.40;;;;;;5108531;28;19916;-72
2023/06/27 13:04:44;;;;;;;;;;;24.70;68.20;;;;;;5106085;28;19974;-72
2023/06/27 13:07:10;;;;;;;;;;;24.70;68.20;;;;;;5108281;28;19965;-72
2023/06/27 13:09:37;;;;;;;;;;;24.60;68.20;;;;;;5108323;28;20002;-72
2023/06/27 13:12:03;;;;;;;;;;;24.50;68.20;;;;;;5108939;28;19937;-72
2023/06/27 13:14:29;;;;;;;;;;;24.40;68.30;;;;;;5108291;28;20015;-72
2023/06/27 13:16:54;;;;;;;;;;;24.30;68.50;;;;;;5108077;28;19918;-73
2023/06/27 13:19:21;;;;;;;;;;;24.30;68.60;;;;;;5108119;28;19956;-73
2023/06/27 13:21:46;;;;;;;;;;;24.20;68.50;;;;;;5107985;28;19915;-72
2023/06/27 13:24:12;;;;;;;;;;;24.30;68.70;;;;;;5107621;28;19933;-72
2023/06/27 13:26:38;;;;;;;;;;;24.50;68.80;;;;;;5108083;28;20375;-72
2023/06/27 13:29:04;;;;;;;;;;;24.60;68.80;;;;;;5107697;28;19916;-72
2023/06/27 13:31:30;;;;;;;;;;;24.90;68.80;;;;;;5107517;28;19919;-72
2023/06/27 13:33:56;;;;;;;;;;;25.20;68.80;;;;;;5107630;28;19916;-72
2023/06/27 13:36:21;;;;;;;;;;;25.50;68.80;;;;;;5107731;28;20360;-72
2023/06/27 13:38:47;;;;;;;;;;;25.80;68.80;;;;;;5108702;28;19955;-73
2023/06/27 13:41:12;;;;;;;;;;;26.00;68.70;;;;;;5111545;28;20376;-72
2023/06/27 13:43:38;;;;;;;;;;;26.10;68.40;;;;;;5111308;27;19923;-72
2023/06/27 13:46:03;;;;;;;;;;;26.10;68.20;;;;;;5111353;28;20006;-71
2023/06/27 13:48:29;;;;;;;;;;;25.90;68.00;;;;;;5111113;28;19915;-72
2023/06/27 13:50:55;;;;;;;;;;;25.70;68.10;;;;;;5110775;28;20006;-72
2023/06/27 13:53:21;;;;;;;;;;;25.60;68.40;;;;;;5110742;28;20351;-72
2023/06/27 13:55:46;;;;;;;;;;;25.70;68.60;;;;;;5113541;28;20554;-74
2023/06/27 13:58:12;;;;;;;;;;;25.70;68.50;;;;;;5109830;28;19916;-74
2023/06/27 14:00:38;;;;;;;;;;;25.70;68.50;;;;;;5111663;28;19947;-75
2023/06/27 14:03:03;;;;;;;;;;;25.60;68.60;;;;;;5111219;28;20020;-74
2023/06/27 14:05:29;;;;;;;;;;;25.60;68.70;;;;;;5111399;28;19923;-75
2023/06/27 14:07:55;;;;;;;;;;;25.80;68.90;;;;;;5110456;28;19923;-74
2023/06/27 14:10:21;;;;;;;;;;;25.90;68.90;;;;;;5111572;28;19965;-75
2023/06/27 14:12:48;;;;;;;;;;;26.00;68.80;;;;;;5110312;28;20011;-74